createdAt,value
2022-08-05T00:01:36.102Z,100891.40
2022-08-05T00:04:08.378Z,100889.60
2022-08-05T00:06:36.732Z,100885.60
2022-08-05T00:09:12.861Z,100885.60
2022-08-05T00:11:48.781Z,100882.00
2022-08-05T00:14:27.781Z,100874.60
2022-08-05T00:16:57.917Z,100877.40
2022-08-05T00:19:32.900Z,100874.20
2022-08-05T00:22:03.263Z,100870.00
2022-08-05T00:24:32.322Z,100870.80
2022-08-05T00:27:04.552Z,100875.60
2022-08-05T00:29:38.482Z,100871.40
2022-08-05T00:32:12.233Z,100879.00
2022-08-05T00:35:04.789Z,100872.00
2022-08-05T00:37:51.078Z,100870.60
2022-08-05T00:40:27.071Z,100866.60
2022-08-05T00:43:00.560Z,100867.60
2022-08-05T00:45:38.294Z,100867.60
2022-08-05T00:48:09.420Z,100867.20
2022-08-05T00:50:41.340Z,100867.00
2022-08-05T00:54:01.026Z,100867.60
2022-08-05T00:56:01.281Z,100866.80
2022-08-05T00:58:29.132Z,100866.40
2022-08-05T01:00:57.308Z,100867.60
2022-08-05T01:03:33.252Z,100874.00
2022-08-05T01:06:02.615Z,100867.00
2022-08-05T01:08:43.418Z,100870.60
2022-08-05T01:11:36.712Z,100867.00
2022-08-05T01:14:50.411Z,100866.80
2022-08-05T01:17:40.343Z,100860.40
2022-08-05T01:20:34.228Z,100866.60
2022-08-05T01:23:24.324Z,100862.80
2022-08-05T01:26:38.337Z,100863.80
2022-08-05T01:29:17.351Z,100861.20
2022-08-05T01:31:59.509Z,100858.60
2022-08-05T01:34:36.643Z,100859.00
2022-08-05T01:37:18.002Z,100859.80
2022-08-05T01:39:59.171Z,100854.80
2022-08-05T01:42:34.077Z,100855.80
2022-08-05T01:45:03.536Z,100850.40
2022-08-05T01:47:39.674Z,100846.80
2022-08-05T01:50:28.871Z,100847.20
2022-08-05T01:53:04.869Z,100850.20
2022-08-05T01:55:39.019Z,100847.60
2022-08-05T01:58:15.597Z,100851.60
2022-08-05T02:00:50.518Z,100848.00
2022-08-05T02:03:34.287Z,100847.00
2022-08-05T02:06:37.290Z,100843.60
2022-08-05T02:08:57.847Z,100846.00
2022-08-05T02:11:47.771Z,100839.40
2022-08-05T02:14:32.462Z,100833.80
2022-08-05T02:18:30.646Z,100836.20
2022-08-05T02:21:15.048Z,100833.20
2022-08-05T02:23:49.116Z,100832.40
2022-08-05T02:26:26.469Z,100835.00
2022-08-05T02:28:58.161Z,100833.40
2022-08-05T02:31:34.973Z,100833.40
2022-08-05T02:34:11.941Z,100834.40
2022-08-05T02:36:49.289Z,100838.20
2022-08-05T02:39:21.501Z,100835.40
2022-08-05T02:41:58.262Z,100831.20
2022-08-05T02:44:32.556Z,100832.60
2022-08-05T02:47:02.696Z,100833.00
2022-08-05T02:49:40.638Z,100830.00
2022-08-05T02:52:29.488Z,100830.40
2022-08-05T02:55:01.801Z,100829.00
2022-08-05T02:58:10.842Z,100830.80
2022-08-05T03:00:23.229Z,100827.20
2022-08-05T03:02:55.575Z,100826.80
2022-08-05T03:06:55.446Z,100830.80
2022-08-05T03:08:12.453Z,100822.00
2022-08-05T03:11:53.108Z,100819.60
2022-08-05T03:13:51.412Z,100814.40
2022-08-05T03:16:22.595Z,100813.40
2022-08-05T03:18:51.433Z,100813.60
2022-08-05T03:21:19.987Z,100810.80
2022-08-05T03:23:50.170Z,100807.60
2022-08-05T03:26:31.568Z,100811.00
2022-08-05T03:29:00.572Z,100809.40
2022-08-05T03:31:57.006Z,100812.40
2022-08-05T03:34:19.460Z,100810.60
2022-08-05T03:36:52.412Z,100812.00
2022-08-05T03:39:27.286Z,100816.60
2022-08-05T03:41:56.878Z,100811.40
2022-08-05T03:44:25.590Z,100808.20
2022-08-05T03:46:57.158Z,100809.40
2022-08-05T03:49:31.153Z,100806.20
2022-08-05T03:52:37.149Z,100805.40
2022-08-05T03:56:06.049Z,100806.80
2022-08-05T03:58:16.692Z,100802.60
2022-08-05T04:00:51.526Z,100797.80
2022-08-05T04:03:28.611Z,100796.00
2022-08-05T04:05:59.254Z,100796.60
2022-08-05T04:08:36.532Z,100797.00
2022-08-05T04:11:08.725Z,100799.00
2022-08-05T04:13:49.727Z,100789.00
2022-08-05T04:16:24.948Z,100789.80
2022-08-05T04:18:54.892Z,100783.80
2022-08-05T04:22:10.079Z,100782.80
2022-08-05T04:24:19.215Z,100783.40
2022-08-05T04:26:51.036Z,100782.40
2022-08-05T04:29:18.954Z,100777.00
2022-08-05T04:31:50.864Z,100777.20
2022-08-05T04:34:32.420Z,100779.20
2022-08-05T04:37:03.370Z,100779.20
2022-08-05T04:39:35.503Z,100777.00
2022-08-05T04:42:04.226Z,100778.60
2022-08-05T04:44:32.171Z,100779.00
2022-08-05T04:47:09.944Z,100778.80
2022-08-05T04:50:01.727Z,100780.00
2022-08-05T04:52:29.172Z,100776.00
2022-08-05T04:55:09.594Z,100779.00
2022-08-05T04:57:48.019Z,100780.80
2022-08-05T05:00:23.455Z,100783.00
2022-08-05T05:02:52.110Z,100787.40
2022-08-05T05:05:26.185Z,100784.40
2022-08-05T05:08:05.482Z,100783.00
2022-08-05T05:10:55.996Z,100782.40
2022-08-05T05:13:24.462Z,100781.40
2022-08-05T05:15:57.560Z,100779.00
2022-08-05T05:18:33.356Z,100781.20
2022-08-05T05:21:03.920Z,100779.60
2022-08-05T05:23:39.198Z,100783.00
2022-08-05T05:26:28.816Z,100784.60
2022-08-05T05:29:00.925Z,100780.60
2022-08-05T05:34:01.920Z,100784.80
2022-08-05T05:36:32.142Z,100784.20
2022-08-05T05:39:00.355Z,100779.40
2022-08-05T05:41:40.832Z,100779.00
2022-08-05T05:44:35.474Z,100779.20
2022-08-05T05:47:04.316Z,100779.80
2022-08-05T05:49:33.312Z,100780.00
2022-08-05T05:52:07.336Z,100781.20
2022-08-05T05:54:50.991Z,100781.20
2022-08-05T05:57:20.176Z,100779.80
2022-08-05T05:59:48.973Z,100787.20
2022-08-05T06:02:17.333Z,100785.60
2022-08-05T06:05:03.482Z,100781.40
2022-08-05T06:07:42.024Z,100787.80
2022-08-05T06:10:11.125Z,100789.60
2022-08-05T06:12:42.637Z,100787.60
2022-08-05T06:15:24.181Z,100783.80
2022-08-05T06:17:54.767Z,100783.40
2022-08-05T06:20:23.314Z,100783.80
2022-08-05T06:22:51.164Z,100784.40
2022-08-05T06:25:25.064Z,100784.40
2022-08-05T06:28:12.511Z,100786.40
2022-08-05T06:30:49.521Z,100782.00
2022-08-05T06:33:19.408Z,100782.60
2022-08-05T06:36:07.576Z,100783.40
2022-08-05T06:38:38.360Z,100780.40
2022-08-05T06:41:15.009Z,100778.60
2022-08-05T06:43:59.755Z,100777.80
2022-08-05T06:46:30.147Z,100777.40
2022-08-05T06:49:01.297Z,100770.40
2022-08-05T06:51:31.472Z,100772.00
2022-08-05T06:54:04.909Z,100771.00
2022-08-05T06:56:34.519Z,100770.40
2022-08-05T06:59:09.540Z,100768.60
2022-08-05T07:01:40.591Z,100764.40
2022-08-05T07:04:11.217Z,100761.40
2022-08-05T07:06:45.285Z,100761.20
2022-08-05T07:09:13.979Z,100762.60
2022-08-05T07:11:49.382Z,100757.00
2022-08-05T07:14:38.311Z,100757.60
2022-08-05T07:18:00.692Z,100756.60
2022-08-05T07:22:45.715Z,100746.80
2022-08-05T07:25:55.429Z,100743.60
2022-08-05T07:28:09.687Z,100747.00
2022-08-05T07:30:43.206Z,100744.40
2022-08-05T07:33:16.036Z,100746.80
2022-08-05T07:36:04.135Z,100741.00
2022-08-05T07:38:43.758Z,100734.60
2022-08-05T07:42:12.976Z,100735.20
2022-08-05T07:44:18.775Z,100734.80
2022-08-05T07:46:49.405Z,100739.60
2022-08-05T07:49:19.696Z,100739.00
2022-08-05T07:51:54.514Z,100740.60
2022-08-05T07:54:31.355Z,100736.40
2022-08-05T07:57:17.720Z,100730.80
2022-08-05T07:59:52.266Z,100735.60
2022-08-05T08:02:30.907Z,100740.20
2022-08-05T08:05:11.672Z,100737.80
2022-08-05T08:08:00.024Z,100731.60
2022-08-05T08:10:29.328Z,100739.40
2022-08-05T08:12:59.048Z,100738.40
2022-08-05T08:16:34.352Z,100733.80
2022-08-05T08:18:20.912Z,100734.40
2022-08-05T08:21:03.019Z,100739.00
2022-08-05T08:24:02.489Z,100733.40
2022-08-05T08:26:29.829Z,100742.40
2022-08-05T08:29:09.755Z,100732.80
2022-08-05T08:31:52.570Z,100729.40
2022-08-05T08:34:30.589Z,100728.40
2022-08-05T08:37:04.893Z,100723.80
2022-08-05T08:39:37.418Z,100728.60
2022-08-05T08:42:34.085Z,100725.40
2022-08-05T08:45:23.173Z,100726.00
2022-08-05T08:48:07.113Z,100726.40
2022-08-05T08:51:22.115Z,100724.60
2022-08-05T08:53:44.385Z,100717.20
2022-08-05T08:56:14.953Z,100724.40
2022-08-05T08:58:47.979Z,100721.00
2022-08-05T09:01:19.664Z,100714.80
2022-08-05T09:03:58.724Z,100712.80
2022-08-05T09:06:30.964Z,100713.80
2022-08-05T09:09:02.237Z,100702.80
2022-08-05T09:11:53.770Z,100707.00
2022-08-05T09:14:58.096Z,100705.60
2022-08-05T09:17:40.222Z,100701.60
2022-08-05T09:20:04.819Z,100707.40
2022-08-05T09:23:19.583Z,100704.20
2022-08-05T09:26:03.156Z,100707.20
2022-08-05T09:28:34.859Z,100697.20
2022-08-05T09:31:43.806Z,100700.80
2022-08-05T09:34:10.358Z,100697.60
2022-08-05T09:36:55.961Z,100686.60
2022-08-05T09:39:41.450Z,100697.20
2022-08-05T09:42:28.271Z,100686.60
2022-08-05T09:45:17.907Z,100685.60
2022-08-05T09:47:55.398Z,100677.20
2022-08-05T09:50:38.849Z,100677.60
2022-08-05T09:53:22.696Z,100674.60
2022-08-05T09:56:05.033Z,100674.20
2022-08-05T09:58:42.077Z,100678.80
2022-08-05T10:01:14.947Z,100679.00
2022-08-05T10:04:19.649Z,100670.80
2022-08-05T10:06:59.852Z,100671.00
2022-08-05T10:09:44.974Z,100659.80
2022-08-05T10:12:18.364Z,100656.00
2022-08-05T10:15:20.943Z,100660.80
2022-08-05T10:18:07.441Z,100655.00
2022-08-05T10:20:56.992Z,100651.40
2022-08-05T10:23:56.439Z,100656.00
2022-08-05T10:26:24.203Z,100650.80
2022-08-05T10:29:00.238Z,100644.40
2022-08-05T10:32:55.165Z,100637.00
2022-08-05T10:34:16.790Z,100639.60
2022-08-05T10:36:48.122Z,100634.40
2022-08-05T10:39:59.525Z,100634.80
2022-08-05T10:42:33.761Z,100632.00
2022-08-05T10:45:21.510Z,100639.80
2022-08-05T10:48:29.779Z,100633.60
2022-08-05T10:51:00.750Z,100623.00
2022-08-05T10:53:55.738Z,100622.40
2022-08-05T10:56:27.343Z,100632.20
2022-08-05T10:58:58.410Z,100625.00
2022-08-05T11:01:55.274Z,100616.80
2022-08-05T11:04:48.285Z,100624.00
2022-08-05T11:07:18.953Z,100630.40
2022-08-05T11:10:29.221Z,100617.40
2022-08-05T11:13:01.344Z,100614.80
2022-08-05T11:15:59.173Z,100599.00
2022-08-05T11:18:39.058Z,100611.00
2022-08-05T11:21:40.892Z,100596.80
2022-08-05T11:24:30.176Z,100602.40
2022-08-05T11:27:37.060Z,100603.20
2022-08-05T11:30:22.795Z,100598.00
2022-08-05T11:33:44.066Z,100610.20
2022-08-05T11:36:34.541Z,100599.20
2022-08-05T11:39:09.718Z,100593.20
2022-08-05T11:42:01.183Z,100587.40
2022-08-05T11:44:53.075Z,100591.80
2022-08-05T11:47:48.452Z,100595.00
2022-08-05T11:50:14.274Z,100589.60
2022-08-05T11:52:46.212Z,100594.40
2022-08-05T11:55:21.224Z,100583.00
2022-08-05T11:58:11.053Z,100581.60
2022-08-05T12:00:41.530Z,100574.20
2022-08-05T12:03:32.054Z,100588.00
2022-08-05T12:06:06.101Z,100582.40
2022-08-05T12:08:49.871Z,100576.40
2022-08-05T12:11:28.230Z,100570.80
2022-08-05T12:14:10.400Z,100564.80
2022-08-05T12:16:45.284Z,100562.40
2022-08-05T12:20:27.120Z,100565.00
2022-08-05T12:22:09.550Z,100568.40
2022-08-05T12:24:49.556Z,100567.60
2022-08-05T12:27:25.432Z,100556.80
2022-08-05T12:30:15.592Z,100547.60
2022-08-05T12:32:54.053Z,100547.80
2022-08-05T12:35:28.372Z,100552.00
2022-08-05T12:38:08.548Z,100545.20
2022-08-05T12:40:38.985Z,100551.80
2022-08-05T12:43:12.472Z,100544.80
2022-08-05T12:45:56.864Z,100551.20
2022-08-05T12:48:32.249Z,100555.00
2022-08-05T12:51:21.593Z,100555.60
2022-08-05T12:53:55.644Z,100557.80
2022-08-05T12:56:35.440Z,100551.20
2022-08-05T12:59:27.621Z,100556.60
2022-08-05T13:02:09.935Z,100553.00
2022-08-05T13:04:54.798Z,100542.80
2022-08-05T13:07:57.744Z,100539.80
2022-08-05T13:10:19.556Z,100542.40
2022-08-05T13:12:57.299Z,100540.60
2022-08-05T13:15:41.749Z,100536.80
2022-08-05T13:18:20.546Z,100522.60
2022-08-05T13:20:50.138Z,100533.40
2022-08-05T13:23:22.482Z,100527.80
2022-08-05T13:25:59.488Z,100511.00
2022-08-05T13:28:32.251Z,100529.60
2022-08-05T13:31:10.879Z,100513.60
2022-08-05T13:34:21.508Z,100508.00
2022-08-05T13:36:30.871Z,100522.40
2022-08-05T13:38:58.890Z,100521.00
2022-08-05T13:41:36.100Z,100517.40
2022-08-05T13:44:06.595Z,100509.60
2022-08-05T13:47:01.810Z,100511.20
2022-08-05T13:49:35.306Z,100518.00
2022-08-05T13:52:15.041Z,100516.00
2022-08-05T13:54:43.233Z,100519.40
2022-08-05T13:57:25.254Z,100512.00
2022-08-05T13:59:59.195Z,100513.40
2022-08-05T14:02:29.851Z,100510.80
2022-08-05T14:05:11.598Z,100516.20
2022-08-05T14:07:59.657Z,100516.20
2022-08-05T14:10:32.325Z,100508.60
2022-08-05T14:13:03.104Z,100514.80
2022-08-05T14:16:04.490Z,100499.20
2022-08-05T14:18:23.523Z,100503.80
2022-08-05T14:20:56.456Z,100508.20
2022-08-05T14:23:36.669Z,100504.40
2022-08-05T14:26:38.328Z,100502.60
2022-08-05T14:28:59.213Z,100504.60
2022-08-05T14:32:03.227Z,100504.60
2022-08-05T14:34:18.998Z,100505.20
2022-08-05T14:36:53.530Z,100494.60
2022-08-05T14:39:24.436Z,100494.80
2022-08-05T14:42:19.654Z,100497.60
2022-08-05T14:44:46.020Z,100498.60
2022-08-05T14:47:14.417Z,100504.20
2022-08-05T14:49:59.636Z,100503.00
2022-08-05T14:52:51.515Z,100498.40
2022-08-05T14:55:38.620Z,100500.80
2022-08-05T14:58:11.622Z,100497.00
2022-08-05T15:00:57.921Z,100502.80
2022-08-05T15:03:33.562Z,100502.40
2022-08-05T15:06:14.935Z,100500.00
2022-08-05T15:09:01.295Z,100488.60
2022-08-05T15:11:51.885Z,100498.00
2022-08-05T15:14:35.862Z,100499.60
2022-08-05T15:17:44.630Z,100502.80
2022-08-05T15:19:58.095Z,100498.20
2022-08-05T15:22:27.079Z,100499.40
2022-08-05T15:24:59.375Z,100488.60
2022-08-05T15:27:35.896Z,100489.60
2022-08-05T15:30:04.958Z,100483.20
2022-08-05T15:32:33.358Z,100476.00
2022-08-05T15:35:04.195Z,100476.20
2022-08-05T15:38:33.186Z,100475.20
2022-08-05T15:40:58.614Z,100467.80
2022-08-05T15:43:20.536Z,100472.40
2022-08-05T15:46:00.347Z,100460.00
2022-08-05T15:48:30.186Z,100461.60
2022-08-05T15:51:01.519Z,100464.40
2022-08-05T15:53:38.364Z,100461.40
2022-08-05T15:56:20.441Z,100465.60
2022-08-05T15:58:49.203Z,100459.40
2022-08-05T16:01:20.082Z,100456.40
2022-08-05T16:03:50.728Z,100456.20
2022-08-05T16:06:20.924Z,100461.20
2022-08-05T16:08:55.266Z,100451.60
2022-08-05T16:11:42.430Z,100454.80
2022-08-05T16:14:17.472Z,100451.40
2022-08-05T16:16:47.405Z,100445.00
2022-08-05T16:22:58.459Z,100436.80
2022-08-05T16:25:32.148Z,100443.00
2022-08-05T16:28:09.551Z,100441.20
2022-08-05T16:30:42.801Z,100441.40
2022-08-05T16:33:13.351Z,100438.40
2022-08-05T16:35:45.242Z,100432.20
2022-08-05T16:38:27.919Z,100437.20
2022-08-05T16:41:01.506Z,100434.60
2022-08-05T16:43:34.782Z,100431.40
2022-08-05T16:46:23.567Z,100432.00
2022-08-05T16:48:55.653Z,100434.80
2022-08-05T16:51:24.933Z,100437.40
2022-08-05T16:54:03.203Z,100441.40
2022-08-05T16:56:41.723Z,100441.40
2022-08-05T16:59:14.698Z,100450.00
2022-08-05T17:01:53.745Z,100459.40
2022-08-05T17:04:28.376Z,100459.80
2022-08-05T17:07:11.418Z,100462.00
2022-08-05T17:09:57.306Z,100471.00
2022-08-05T17:12:50.463Z,100475.40
2022-08-05T17:15:19.658Z,100488.20
2022-08-05T17:17:54.838Z,100495.60
2022-08-05T17:20:25.078Z,100502.20
2022-08-05T17:22:55.773Z,100509.00
2022-08-05T17:25:33.859Z,100521.00
2022-08-05T17:28:15.468Z,100525.00
2022-08-05T17:30:52.190Z,100538.00
2022-08-05T17:33:21.613Z,100550.40
2022-08-05T17:36:07.465Z,100568.00
2022-08-05T17:38:47.336Z,100572.80
2022-08-05T17:42:17.651Z,100602.20
2022-08-05T17:44:26.620Z,100634.60
2022-08-05T17:47:05.631Z,100657.80
2022-08-05T17:50:00.157Z,100670.60
2022-08-05T17:52:26.160Z,100680.80
2022-08-05T17:54:54.642Z,100687.20
2022-08-05T17:57:25.907Z,100696.80
2022-08-05T18:00:09.114Z,100695.80
2022-08-05T18:02:47.082Z,100697.40
2022-08-05T18:05:16.969Z,100693.80
2022-08-05T18:07:46.534Z,100693.40
2022-08-05T18:10:21.356Z,100674.60
2022-08-05T18:12:50.353Z,100667.60
2022-08-05T18:15:18.845Z,100653.00
2022-08-05T18:17:58.714Z,100635.80
2022-08-05T18:20:32.526Z,100618.60
2022-08-05T18:23:11.527Z,100598.20
2022-08-05T18:25:45.068Z,100595.60
2022-08-05T18:28:16.186Z,100600.40
2022-08-05T18:30:52.726Z,100598.00
2022-08-05T18:33:22.741Z,100588.80
2022-08-05T18:36:03.500Z,100584.80
2022-08-05T18:38:36.445Z,100594.00
2022-08-05T18:41:57.703Z,100610.60
2022-08-05T18:43:57.014Z,100640.60
2022-08-05T18:46:34.559Z,100660.60
2022-08-05T18:49:23.479Z,100678.40
2022-08-05T18:52:17.467Z,100689.00
2022-08-05T18:55:06.202Z,100699.40
2022-08-05T18:57:50.006Z,100717.40
2022-08-05T19:00:27.122Z,100717.80
2022-08-05T19:03:03.786Z,100729.20
2022-08-05T19:06:12.384Z,100717.00
2022-08-05T19:08:30.458Z,100712.40
2022-08-05T19:11:02.804Z,100704.60
2022-08-05T19:13:36.085Z,100695.00
2022-08-05T19:16:24.339Z,100672.40
2022-08-05T19:18:56.563Z,100675.60
2022-08-05T19:21:34.364Z,100677.20
2022-08-05T19:24:09.001Z,100685.20
2022-08-05T19:26:43.961Z,100690.80
2022-08-05T19:29:26.580Z,100691.00
2022-08-05T19:32:11.778Z,100692.40
2022-08-05T19:34:54.290Z,100695.20
2022-08-05T19:37:29.828Z,100682.00
2022-08-05T19:40:10.104Z,100679.20
2022-08-05T19:42:39.197Z,100671.40
2022-08-05T19:45:08.393Z,100669.60
2022-08-05T19:47:42.456Z,100674.60
2022-08-05T19:50:12.134Z,100674.20
2022-08-05T19:52:41.019Z,100689.60
2022-08-05T19:56:15.163Z,100692.40
2022-08-05T19:58:04.126Z,100705.40
2022-08-05T20:00:45.990Z,100727.00
2022-08-05T20:03:14.313Z,100740.20
2022-08-05T20:05:49.792Z,100752.40
2022-08-05T20:08:19.838Z,100762.00
2022-08-05T20:10:49.567Z,100774.00
2022-08-05T20:13:30.341Z,100776.80
2022-08-05T20:16:07.482Z,100781.20
2022-08-05T20:18:36.254Z,100811.00
2022-08-05T20:21:07.350Z,100848.40
2022-08-05T20:23:50.367Z,100860.60
2022-08-05T20:26:25.291Z,100839.40
2022-08-05T20:28:57.539Z,100817.80
2022-08-05T20:31:43.049Z,100802.60
2022-08-05T20:34:17.648Z,100776.80
2022-08-05T20:36:45.578Z,100777.60
2022-08-05T20:39:16.665Z,100777.40
2022-08-05T20:41:47.899Z,100777.40
2022-08-05T20:44:30.521Z,100756.20
2022-08-05T20:47:04.163Z,100755.20
2022-08-05T20:49:37.947Z,100755.20
2022-08-05T20:52:10.679Z,100756.40
2022-08-05T20:54:43.350Z,100768.80
2022-08-05T20:57:43.023Z,100769.00
2022-08-05T21:00:40.422Z,100780.20
2022-08-05T21:03:07.290Z,100770.00
2022-08-05T21:05:53.925Z,100774.60
2022-08-05T21:08:41.340Z,100783.60
2022-08-05T21:11:12.697Z,100789.80
2022-08-05T21:13:56.005Z,100784.80
2022-08-05T21:16:29.641Z,100781.40
2022-08-05T21:19:01.372Z,100786.00
2022-08-05T21:21:44.006Z,100784.60
2022-08-05T21:24:19.707Z,100785.20
2022-08-05T21:26:53.395Z,100794.00
2022-08-05T21:29:31.836Z,100793.40
2022-08-05T21:32:02.738Z,100800.40
2022-08-05T21:34:31.636Z,100810.60
2022-08-05T21:37:00.999Z,100812.60
2022-08-05T21:39:29.978Z,100811.20
2022-08-05T21:42:01.184Z,100818.40
2022-08-05T21:44:32.006Z,100819.60
2022-08-05T21:47:00.629Z,100823.40
2022-08-05T21:49:59.450Z,100820.40
2022-08-05T21:52:27.340Z,100828.00
2022-08-05T21:55:06.152Z,100825.20
2022-08-05T21:57:37.501Z,100819.40
2022-08-05T22:00:12.453Z,100805.40
2022-08-05T22:02:41.623Z,100800.80
2022-08-05T22:05:12.476Z,100803.20
2022-08-05T22:07:58.735Z,100808.20
2022-08-05T22:10:28.125Z,100801.60
2022-08-05T22:12:59.152Z,100799.40
2022-08-05T22:16:00.851Z,100805.40
2022-08-05T22:18:26.527Z,100811.40
2022-08-05T22:20:55.879Z,100814.20
2022-08-05T22:24:01.969Z,100814.60
2022-08-05T22:26:51.839Z,100810.80
2022-08-05T22:29:26.541Z,100818.40
2022-08-05T22:32:02.905Z,100819.80
2022-08-05T22:34:33.739Z,100826.80
2022-08-05T22:37:03.932Z,100823.20
2022-08-05T22:39:34.750Z,100826.20
2022-08-05T22:42:12.683Z,100823.40
2022-08-05T22:44:53.512Z,100823.80
2022-08-05T22:47:29.684Z,100837.60
2022-08-05T22:50:20.886Z,100828.00
2022-08-05T22:52:51.415Z,100828.60
2022-08-05T22:55:23.699Z,100830.20
2022-08-05T22:57:53.359Z,100836.60
2022-08-05T23:00:23.773Z,100841.80
2022-08-05T23:02:53.625Z,100845.00
2022-08-05T23:05:23.077Z,100848.00
2022-08-05T23:07:51.873Z,100845.40
2022-08-05T23:10:24.049Z,100847.20
2022-08-05T23:12:55.547Z,100846.60
2022-08-05T23:15:29.804Z,100851.20
2022-08-05T23:18:06.138Z,100853.40
2022-08-05T23:20:39.888Z,100848.80
2022-08-05T23:23:11.218Z,100845.60
2022-08-05T23:25:52.764Z,100846.00
2022-08-05T23:28:26.897Z,100856.40
2022-08-05T23:31:02.205Z,100872.40
2022-08-05T23:34:06.243Z,100877.80
2022-08-05T23:36:39.728Z,100874.40
2022-08-05T23:39:17.219Z,100874.60
2022-08-05T23:41:54.003Z,100878.40
2022-08-05T23:44:25.127Z,100882.80
2022-08-05T23:46:56.095Z,100885.60
2022-08-05T23:49:35.980Z,100886.00
2022-08-05T23:52:25.275Z,100893.80
2022-08-05T23:54:55.907Z,100895.40
2022-08-05T23:57:28.225Z,100893.00
